createdAt,value
2023-05-14T00:00:09.122Z,99232.74
2023-05-14T00:05:11.260Z,99230.42
2023-05-14T00:10:13.060Z,99224.30
2023-05-14T00:15:14.792Z,99221.11
2023-05-14T00:20:16.469Z,99218.44
2023-05-14T00:25:18.144Z,99215.45
2023-05-14T00:30:20.275Z,99208.64
2023-05-14T00:35:22.167Z,99200.48
2023-05-14T00:40:27.065Z,99203.15
2023-05-14T00:45:29.235Z,99208.30
2023-05-14T00:50:30.907Z,99213.00
2023-05-14T00:55:32.664Z,99214.31
2023-05-14T01:00:34.720Z,99218.34
2023-05-14T01:05:43.648Z,99216.10
2023-05-14T01:10:52.415Z,99218.66
2023-05-14T01:15:57.678Z,99218.84
2023-05-14T01:20:59.376Z,99214.15
2023-05-14T01:26:01.061Z,99208.67
2023-05-14T01:31:23.393Z,99215.85
2023-05-14T01:36:25.502Z,99215.55
2023-05-14T01:41:29.564Z,99216.64
2023-05-14T01:46:33.133Z,99212.37
2023-05-14T01:51:35.460Z,99206.98
2023-05-14T01:56:37.720Z,99208.56
2023-05-14T02:01:39.626Z,99198.05
2023-05-14T02:06:41.362Z,99195.36
2023-05-14T02:11:43.056Z,99194.23
2023-05-14T02:16:44.717Z,99195.44
2023-05-14T02:21:46.696Z,99195.73
2023-05-14T02:26:48.506Z,99190.90
2023-05-14T02:31:50.436Z,99182.86
2023-05-14T02:36:52.375Z,99181.20
2023-05-14T02:41:54.083Z,99180.39
2023-05-14T02:46:55.828Z,99173.19
2023-05-14T02:51:57.688Z,99168.97
2023-05-14T02:56:59.363Z,99165.08
2023-05-14T03:02:01.075Z,99165.56
2023-05-14T03:07:03.514Z,99161.54
2023-05-14T03:12:07.030Z,99153.03
2023-05-14T03:17:09.006Z,99150.91
2023-05-14T03:22:10.901Z,99149.55
2023-05-14T03:27:12.577Z,99147.54
2023-05-14T03:32:15.002Z,99145.68
2023-05-14T03:37:16.671Z,99146.98
2023-05-14T03:42:18.406Z,99141.05
2023-05-14T03:47:20.084Z,99142.38
2023-05-14T03:52:21.819Z,99141.13
2023-05-14T03:57:23.611Z,99141.52
2023-05-14T04:07:12.539Z,99140.30
2023-05-14T04:12:14.368Z,99147.02
2023-05-14T04:17:16.254Z,99146.30
2023-05-14T04:22:17.987Z,99144.02
2023-05-14T04:27:21.367Z,99143.09
2023-05-14T04:32:23.340Z,99134.95
2023-05-14T04:37:26.142Z,99129.30
2023-05-14T04:42:27.918Z,99125.59
2023-05-14T04:47:29.758Z,99123.41
2023-05-14T04:52:31.547Z,99124.70
2023-05-14T04:57:33.274Z,99127.61
2023-05-14T05:02:35.213Z,99122.63
2023-05-14T05:07:36.973Z,99118.04
2023-05-14T05:12:38.917Z,99118.67
2023-05-14T05:17:40.734Z,99119.13
2023-05-14T05:22:42.402Z,99116.21
2023-05-14T05:27:44.167Z,99110.59
2023-05-14T05:32:46.249Z,99112.89
2023-05-14T05:37:48.132Z,99112.20
2023-05-14T05:42:49.839Z,99106.32
2023-05-14T05:47:51.746Z,99111.30
2023-05-14T05:52:53.427Z,99112.27
2023-05-14T05:57:55.589Z,99116.77
2023-05-14T06:02:57.294Z,99114.45
2023-05-14T06:07:59.441Z,99107.77
2023-05-14T06:13:01.187Z,99099.33
2023-05-14T06:18:03.101Z,99100.73
2023-05-14T06:23:04.880Z,99091.07
2023-05-14T06:28:06.589Z,99091.63
2023-05-14T06:33:08.312Z,99084.93
2023-05-14T06:38:09.955Z,99088.08
2023-05-14T06:43:11.712Z,99087.13
2023-05-14T06:48:13.529Z,99089.14
2023-05-14T06:53:15.657Z,99091.23
2023-05-14T06:58:17.338Z,99083.70
2023-05-14T07:03:19.474Z,99084.52
2023-05-14T07:08:21.092Z,99082.83
2023-05-14T07:13:23.315Z,99085.48
2023-05-14T07:18:25.152Z,99086.73
2023-05-14T07:23:26.896Z,99087.40
2023-05-14T07:28:28.625Z,99088.05
2023-05-14T07:33:30.374Z,99083.11
2023-05-14T07:38:32.715Z,99088.13
2023-05-14T07:43:34.813Z,99080.88
2023-05-14T07:48:36.638Z,99076.72
2023-05-14T07:53:38.410Z,99069.52
2023-05-14T07:58:41.442Z,99069.10
2023-05-14T08:03:43.538Z,99052.83
2023-05-14T08:08:45.320Z,99048.39
2023-05-14T08:13:46.969Z,99037.02
2023-05-14T08:18:49.255Z,99032.80
2023-05-14T08:23:50.933Z,99025.89
2023-05-14T08:28:54.462Z,99016.21
2023-05-14T08:33:56.416Z,99012.67
2023-05-14T08:38:58.259Z,99006.66
2023-05-14T08:44:14.074Z,99009.38
2023-05-14T08:49:40.732Z,99001.02
2023-05-14T08:54:42.699Z,98998.63
2023-05-14T08:59:44.586Z,98992.08
2023-05-14T09:04:47.508Z,98983.38
2023-05-14T09:09:49.463Z,98978.73
2023-05-14T09:14:51.373Z,98977.35
2023-05-14T09:19:53.648Z,98975.48
2023-05-14T09:25:26.494Z,98976.75
2023-05-14T09:30:28.315Z,98976.30
2023-05-14T09:35:30.010Z,98980.49
2023-05-14T09:40:31.794Z,98974.16
2023-05-14T09:45:35.113Z,98970.50
2023-05-14T09:50:46.642Z,98969.90
2023-05-14T09:55:49.350Z,98959.77
2023-05-14T10:00:51.924Z,98951.02
2023-05-14T10:05:56.126Z,98947.22
2023-05-14T10:10:59.457Z,98937.92
2023-05-14T10:16:44.645Z,98925.59
2023-05-14T10:21:53.140Z,98914.55
2023-05-14T10:26:55.108Z,98903.42
2023-05-14T10:31:56.876Z,98899.55
2023-05-14T10:37:03.036Z,98889.75
2023-05-14T10:42:05.126Z,98889.77
2023-05-14T10:47:07.928Z,98887.48
2023-05-14T10:52:10.543Z,98883.36
2023-05-14T10:57:12.665Z,98884.05
2023-05-14T11:02:21.723Z,98883.00
2023-05-14T11:07:43.643Z,98883.80
2023-05-14T11:12:47.265Z,98882.64
2023-05-14T11:17:50.748Z,98874.70
2023-05-14T11:22:52.765Z,98869.48
2023-05-14T11:27:58.393Z,98866.73
2023-05-14T11:33:02.090Z,98869.73
2023-05-14T11:38:03.947Z,98868.45
2023-05-14T11:43:05.767Z,98863.23
2023-05-14T11:48:15.054Z,98859.67
2023-05-14T11:53:30.896Z,98851.58
2023-05-14T11:58:33.885Z,98837.36
2023-05-14T12:03:36.003Z,98832.11
2023-05-14T12:08:37.903Z,98828.80
2023-05-14T12:13:39.652Z,98823.59
2023-05-14T12:18:42.585Z,98821.00
2023-05-14T12:23:44.445Z,98810.33
2023-05-14T12:28:47.760Z,98802.60
2023-05-14T12:33:49.406Z,98798.74
2023-05-14T12:38:56.897Z,98793.83
2023-05-14T12:44:00.007Z,98792.48
2023-05-14T12:49:01.699Z,98787.17
2023-05-14T12:54:03.638Z,98779.77
2023-05-14T12:59:05.303Z,98769.80
2023-05-14T13:04:07.935Z,98762.42
2023-05-14T13:09:09.692Z,98755.67
2023-05-14T13:14:11.344Z,98756.41
2023-05-14T13:19:12.990Z,98753.80
2023-05-14T13:24:15.312Z,98750.08
2023-05-14T13:29:16.957Z,98742.95
2023-05-14T13:34:18.889Z,98734.55
2023-05-14T13:39:22.760Z,98726.36
2023-05-14T13:44:24.630Z,98719.13
2023-05-14T13:49:26.647Z,98719.98
2023-05-14T13:54:28.316Z,98697.08
2023-05-14T13:59:30.093Z,98683.92
2023-05-14T14:04:32.102Z,98684.57
2023-05-14T14:09:35.846Z,98692.67
2023-05-14T14:14:37.528Z,98682.87
2023-05-14T14:19:39.307Z,98670.80
2023-05-14T14:24:41.040Z,98655.52
2023-05-14T14:29:42.736Z,98648.78
2023-05-14T14:34:44.458Z,98653.90
2023-05-14T14:39:46.165Z,98648.22
2023-05-14T14:44:47.819Z,98639.59
2023-05-14T14:49:49.619Z,98626.46
2023-05-14T14:54:51.773Z,98621.80
2023-05-14T14:59:53.487Z,98604.08
2023-05-14T15:04:55.851Z,98590.52
2023-05-14T15:09:57.480Z,98581.73
2023-05-14T15:14:59.143Z,98591.09
2023-05-14T15:20:21.018Z,98581.88
2023-05-14T15:25:24.287Z,98577.91
2023-05-14T15:30:26.203Z,98579.86
2023-05-14T15:35:27.914Z,98566.64
2023-05-14T15:40:29.773Z,98560.87
2023-05-14T15:45:31.550Z,98560.20
2023-05-14T15:50:33.402Z,98560.17
2023-05-14T15:55:35.602Z,98554.44
2023-05-14T16:00:37.356Z,98543.96
2023-05-14T16:05:39.159Z,98531.54
2023-05-14T16:10:40.852Z,98528.71
2023-05-14T16:15:43.014Z,98528.54
2023-05-14T16:20:44.765Z,98523.19
2023-05-14T16:25:46.635Z,98519.94
2023-05-14T16:30:48.578Z,98518.66
2023-05-14T16:35:51.388Z,98517.02
2023-05-14T16:40:53.006Z,98515.63
2023-05-14T16:45:55.877Z,98521.63
2023-05-14T16:50:59.462Z,98527.15
2023-05-14T16:56:01.749Z,98528.83
2023-05-14T17:01:03.522Z,98511.60
2023-05-14T17:06:05.645Z,98500.04
2023-05-14T17:11:07.393Z,98498.69
2023-05-14T17:16:09.100Z,98495.29
2023-05-14T17:21:11.001Z,98488.88
2023-05-14T17:26:12.789Z,98486.94
2023-05-14T17:31:14.570Z,98479.58
2023-05-14T17:36:16.695Z,98481.13
2023-05-14T17:41:18.379Z,98484.37
2023-05-14T17:46:21.314Z,98489.46
2023-05-14T17:51:22.956Z,98528.17
2023-05-14T17:56:24.746Z,98535.70
2023-05-14T18:01:26.569Z,98550.23
2023-05-14T18:06:28.500Z,98567.64
2023-05-14T18:11:33.986Z,98570.32
2023-05-14T18:16:37.097Z,98576.63
2023-05-14T18:21:38.824Z,98577.98
2023-05-14T18:26:40.740Z,98569.48
2023-05-14T18:31:42.373Z,98558.88
2023-05-14T18:36:44.110Z,98554.62
2023-05-14T18:41:45.851Z,98551.57
2023-05-14T18:46:47.635Z,98547.60
2023-05-14T18:51:49.455Z,98551.11
2023-05-14T18:56:51.286Z,98548.41
2023-05-14T19:01:53.382Z,98550.25
2023-05-14T19:06:55.127Z,98562.64
2023-05-14T19:11:56.799Z,98565.49
2023-05-14T19:16:58.977Z,98575.90
2023-05-14T19:22:00.724Z,98580.76
2023-05-14T19:27:02.549Z,98580.45
2023-05-14T19:32:05.173Z,98588.93
2023-05-14T19:37:07.239Z,98590.67
2023-05-14T19:42:09.028Z,98590.54
2023-05-14T19:47:10.907Z,98588.85
2023-05-14T19:52:12.654Z,98593.85
2023-05-14T19:57:14.350Z,98593.84
2023-05-14T20:02:18.438Z,98593.84
2023-05-14T20:07:20.411Z,98592.13
2023-05-14T20:12:22.037Z,98589.91
2023-05-14T20:17:24.889Z,98580.98
2023-05-14T20:22:26.716Z,98573.21
2023-05-14T20:27:28.451Z,98549.44
2023-05-14T20:32:30.232Z,98534.97
2023-05-14T20:37:32.574Z,98518.80
2023-05-14T20:42:35.098Z,98494.70
2023-05-14T20:47:36.932Z,98476.26
2023-05-14T20:52:38.631Z,98460.08
2023-05-14T20:57:40.887Z,98435.48
2023-05-14T21:02:45.483Z,98412.73
2023-05-14T21:07:48.291Z,98403.98
2023-05-14T21:12:54.893Z,98398.46
2023-05-14T21:17:56.597Z,98384.72
2023-05-14T21:22:58.333Z,98377.83
2023-05-14T21:28:00.144Z,98369.73
2023-05-14T21:33:03.190Z,98370.95
2023-05-14T21:38:04.929Z,98369.25
2023-05-14T21:43:07.149Z,98362.36
2023-05-14T21:48:10.765Z,98353.75
2023-05-14T21:53:13.948Z,98342.38
2023-05-14T21:58:15.778Z,98330.34
2023-05-14T22:03:17.533Z,98321.57
2023-05-14T22:08:19.245Z,98317.63
2023-05-14T22:13:20.942Z,98310.23
2023-05-14T22:18:24.214Z,98308.33
2023-05-14T22:23:25.871Z,98299.73
2023-05-14T22:28:27.573Z,98293.89
2023-05-14T22:33:29.300Z,98278.38
2023-05-14T22:38:30.997Z,98281.81
2023-05-14T22:43:32.723Z,98290.25
2023-05-14T22:48:34.417Z,98286.98
2023-05-14T22:53:36.185Z,98269.25
2023-05-14T22:58:37.897Z,98246.05
2023-05-14T23:03:39.691Z,98232.80
2023-05-14T23:08:42.940Z,98224.23
2023-05-14T23:13:50.712Z,98218.55
2023-05-14T23:18:52.780Z,98208.56
2023-05-14T23:24:02.398Z,98204.95
2023-05-14T23:29:04.075Z,98208.73
2023-05-14T23:34:06.019Z,98200.66
2023-05-14T23:39:08.679Z,98198.41
2023-05-14T23:44:11.120Z,98191.52
2023-05-14T23:49:14.233Z,98179.11
2023-05-14T23:54:17.290Z,98163.77
2023-05-14T23:59:19.018Z,98157.39
